createdAt,value
2023-05-14T00:00:32.389Z,101813.53
2023-05-14T00:03:00.103Z,101808.31
2023-05-14T00:05:27.737Z,101805.00
2023-05-14T00:07:55.233Z,101801.56
2023-05-14T00:10:23.014Z,101809.59
2023-05-14T00:12:51.861Z,101796.56
2023-05-14T00:15:19.382Z,101794.09
2023-05-14T00:17:46.865Z,101786.22
2023-05-14T00:20:14.660Z,101783.53
2023-05-14T00:22:42.490Z,101774.72
2023-05-14T00:25:10.155Z,101785.34
2023-05-14T00:27:40.952Z,101781.69
2023-05-14T00:30:08.873Z,101778.50
2023-05-14T00:32:36.522Z,101776.78
2023-05-14T00:35:04.689Z,101774.72
2023-05-14T00:37:32.236Z,101772.03
2023-05-14T00:39:59.746Z,101774.56
2023-05-14T00:42:27.190Z,101768.34
2023-05-14T00:44:54.830Z,101770.22
2023-05-14T00:47:22.671Z,101777.25
2023-05-14T00:49:50.314Z,101767.78
2023-05-14T00:52:18.329Z,101770.41
2023-05-14T00:54:48.299Z,101759.25
2023-05-14T00:57:15.803Z,101771.50
2023-05-14T00:59:43.412Z,101769.81
2023-05-14T01:02:11.246Z,101761.09
2023-05-14T01:04:39.761Z,101760.97
2023-05-14T01:07:38.124Z,101764.00
2023-05-14T01:10:13.768Z,101764.66
2023-05-14T01:12:52.692Z,101755.84
2023-05-14T01:15:32.334Z,101758.44
2023-05-14T01:18:05.211Z,101760.16
2023-05-14T01:20:32.858Z,101761.03
2023-05-14T01:23:00.418Z,101762.16
2023-05-14T01:25:28.617Z,101766.59
2023-05-14T01:28:20.755Z,101763.34
2023-05-14T01:31:02.826Z,101764.22
2023-05-14T01:33:33.990Z,101761.66
2023-05-14T01:36:02.263Z,101764.09
2023-05-14T01:38:31.889Z,101763.38
2023-05-14T01:41:01.065Z,101760.66
2023-05-14T01:43:30.029Z,101767.56
2023-05-14T01:45:57.573Z,101760.53
2023-05-14T01:48:25.931Z,101756.34
2023-05-14T01:50:53.447Z,101765.16
2023-05-14T01:53:20.892Z,101758.31
2023-05-14T01:55:48.359Z,101748.69
2023-05-14T01:58:15.755Z,101747.72
2023-05-14T02:00:44.262Z,101749.47
2023-05-14T02:03:11.812Z,101743.66
2023-05-14T02:05:39.471Z,101744.44
2023-05-14T02:08:06.944Z,101744.38
2023-05-14T02:10:34.368Z,101748.75
2023-05-14T02:13:01.656Z,101745.38
2023-05-14T02:15:29.125Z,101735.63
2023-05-14T02:17:56.658Z,101744.31
2023-05-14T02:20:24.631Z,101747.69
2023-05-14T02:22:52.190Z,101742.31
2023-05-14T02:25:19.778Z,101740.81
2023-05-14T02:27:47.514Z,101739.28
2023-05-14T02:30:15.209Z,101738.44
2023-05-14T02:32:43.183Z,101735.66
2023-05-14T02:35:10.827Z,101728.66
2023-05-14T02:37:38.249Z,101728.03
2023-05-14T02:40:07.354Z,101731.41
2023-05-14T02:42:35.726Z,101723.59
2023-05-14T02:45:03.475Z,101726.28
2023-05-14T02:47:30.938Z,101728.03
2023-05-14T02:49:58.573Z,101732.28
2023-05-14T02:52:26.049Z,101729.91
2023-05-14T02:54:53.708Z,101726.53
2023-05-14T02:57:21.392Z,101724.78
2023-05-14T02:59:49.023Z,101722.84
2023-05-14T03:02:17.008Z,101716.63
2023-05-14T03:04:45.223Z,101718.25
2023-05-14T03:07:12.675Z,101718.56
2023-05-14T03:09:40.192Z,101713.19
2023-05-14T03:12:07.697Z,101714.00
2023-05-14T03:14:35.092Z,101715.97
2023-05-14T03:17:03.797Z,101719.59
2023-05-14T03:19:31.375Z,101707.25
2023-05-14T03:21:58.823Z,101708.28
2023-05-14T03:24:26.298Z,101713.47
2023-05-14T03:26:53.745Z,101717.69
2023-05-14T03:29:21.327Z,101711.44
2023-05-14T03:31:50.016Z,101709.75
2023-05-14T03:34:17.612Z,101708.75
2023-05-14T03:36:45.043Z,101706.13
2023-05-14T03:39:15.488Z,101703.53
2023-05-14T03:41:42.866Z,101699.84
2023-05-14T03:44:10.417Z,101701.59
2023-05-14T03:46:38.188Z,101694.63
2023-05-14T03:49:07.137Z,101691.16
2023-05-14T03:51:35.369Z,101690.53
2023-05-14T03:54:05.822Z,101693.16
2023-05-14T03:56:33.588Z,101697.72
2023-05-14T03:59:01.333Z,101689.03
2023-05-14T04:01:28.839Z,101697.75
2023-05-14T04:03:58.624Z,101702.13
2023-05-14T04:06:26.331Z,101695.84
2023-05-14T04:08:53.870Z,101690.47
2023-05-14T04:11:21.708Z,101682.50
2023-05-14T04:13:50.123Z,101693.09
2023-05-14T04:16:17.661Z,101694.94
2023-05-14T04:18:45.215Z,101693.16
2023-05-14T04:21:12.784Z,101690.50
2023-05-14T04:23:40.345Z,101689.78
2023-05-14T04:26:07.832Z,101684.66
2023-05-14T04:28:35.558Z,101694.94
2023-05-14T04:31:03.954Z,101697.25
2023-05-14T04:33:31.371Z,101689.31
2023-05-14T04:35:58.743Z,101697.31
2023-05-14T04:38:26.307Z,101699.19
2023-05-14T04:40:53.751Z,101697.22
2023-05-14T04:43:21.253Z,101699.00
2023-05-14T04:45:48.721Z,101696.53
2023-05-14T04:48:16.497Z,101691.28
2023-05-14T04:50:44.403Z,101691.25
2023-05-14T04:53:12.018Z,101693.91
2023-05-14T04:55:39.445Z,101686.28
2023-05-14T04:58:07.035Z,101697.47
2023-05-14T05:00:34.614Z,101693.72
2023-05-14T05:03:02.240Z,101690.41
2023-05-14T05:05:29.747Z,101695.03
2023-05-14T05:07:57.250Z,101699.22
2023-05-14T05:10:24.976Z,101704.44
2023-05-14T05:12:52.858Z,101696.75
2023-05-14T05:15:20.307Z,101696.13
2023-05-14T05:17:48.574Z,101690.81
2023-05-14T05:20:16.087Z,101688.22
2023-05-14T05:22:43.631Z,101695.00
2023-05-14T05:25:12.979Z,101686.41
2023-05-14T05:27:40.510Z,101688.31
2023-05-14T05:30:08.698Z,101683.94
2023-05-14T05:32:36.881Z,101687.34
2023-05-14T05:35:04.616Z,101692.63
2023-05-14T05:37:32.086Z,101691.75
2023-05-14T05:39:59.496Z,101700.28
2023-05-14T05:42:27.022Z,101698.72
2023-05-14T05:44:54.522Z,101709.22
2023-05-14T05:47:21.996Z,101705.50
2023-05-14T05:49:49.836Z,101705.63
2023-05-14T05:52:17.399Z,101713.53
2023-05-14T05:54:44.850Z,101717.91
2023-05-14T05:57:12.289Z,101724.84
2023-05-14T05:59:39.568Z,101727.59
2023-05-14T06:02:07.247Z,101724.00
2023-05-14T06:04:34.815Z,101728.50
2023-05-14T06:07:02.427Z,101730.16
2023-05-14T06:09:29.885Z,101737.22
2023-05-14T06:11:57.384Z,101729.25
2023-05-14T06:14:25.276Z,101732.81
2023-05-14T06:16:52.920Z,101731.25
2023-05-14T06:19:20.530Z,101732.09
2023-05-14T06:21:48.053Z,101726.78
2023-05-14T06:24:16.468Z,101719.91
2023-05-14T06:26:43.922Z,101721.75
2023-05-14T06:29:11.343Z,101725.38
2023-05-14T06:31:39.141Z,101723.56
2023-05-14T06:34:06.557Z,101723.63
2023-05-14T06:36:34.353Z,101727.38
2023-05-14T06:39:01.807Z,101724.81
2023-05-14T06:41:29.817Z,101731.09
2023-05-14T06:43:57.762Z,101731.34
2023-05-14T06:46:25.177Z,101725.22
2023-05-14T06:48:52.469Z,101733.09
2023-05-14T06:51:19.768Z,101726.84
2023-05-14T06:53:48.905Z,101724.25
2023-05-14T06:56:17.420Z,101722.59
2023-05-14T06:58:44.872Z,101728.81
2023-05-14T07:01:12.524Z,101731.63
2023-05-14T07:03:40.045Z,101727.22
2023-05-14T07:06:07.641Z,101731.66
2023-05-14T07:08:35.067Z,101734.28
2023-05-14T07:11:02.712Z,101738.72
2023-05-14T07:13:30.218Z,101735.22
2023-05-14T07:15:57.736Z,101733.56
2023-05-14T07:18:25.243Z,101730.97
2023-05-14T07:20:52.718Z,101723.19
2023-05-14T07:23:20.212Z,101716.25
2023-05-14T07:25:47.742Z,101718.81
2023-05-14T07:28:16.172Z,101717.16
2023-05-14T07:30:43.686Z,101716.31
2023-05-14T07:33:11.309Z,101722.59
2023-05-14T07:35:38.877Z,101715.66
2023-05-14T07:38:06.395Z,101719.28
2023-05-14T07:40:34.165Z,101730.06
2023-05-14T07:43:01.785Z,101724.94
2023-05-14T07:45:29.490Z,101732.09
2023-05-14T07:47:57.022Z,101731.25
2023-05-14T07:50:25.035Z,101735.63
2023-05-14T07:52:52.562Z,101735.59
2023-05-14T07:55:20.131Z,101736.44
2023-05-14T07:57:47.676Z,101740.81
2023-05-14T08:00:16.939Z,101741.66
2023-05-14T08:02:44.883Z,101741.63
2023-05-14T08:05:12.779Z,101738.09
2023-05-14T08:07:40.234Z,101737.22
2023-05-14T08:10:08.651Z,101739.91
2023-05-14T08:12:36.109Z,101734.69
2023-05-14T08:15:03.962Z,101739.94
2023-05-14T08:17:31.485Z,101741.72
2023-05-14T08:19:58.978Z,101739.13
2023-05-14T08:22:26.533Z,101746.19
2023-05-14T08:24:53.977Z,101740.94
2023-05-14T08:27:21.635Z,101740.94
2023-05-14T08:29:49.262Z,101736.56
2023-05-14T08:32:23.264Z,101740.06
2023-05-14T08:34:52.557Z,101729.47
2023-05-14T08:37:20.200Z,101727.72
2023-05-14T08:39:47.745Z,101725.06
2023-05-14T08:42:18.345Z,101725.97
2023-05-14T08:44:52.049Z,101730.31
2023-05-14T08:47:22.208Z,101726.78
2023-05-14T08:49:58.163Z,101720.63
2023-05-14T08:52:26.070Z,101725.00
2023-05-14T08:54:54.129Z,101720.59
2023-05-14T08:57:24.962Z,101734.66
2023-05-14T08:59:56.073Z,101727.66
2023-05-14T09:02:31.419Z,101726.81
2023-05-14T09:05:01.250Z,101724.16
2023-05-14T09:07:28.882Z,101730.28
2023-05-14T09:09:56.458Z,101723.19
2023-05-14T09:12:23.880Z,101715.19
2023-05-14T09:14:51.543Z,101726.56
2023-05-14T09:17:19.843Z,101723.00
2023-05-14T09:19:53.099Z,101726.38
2023-05-14T09:22:21.129Z,101728.84
2023-05-14T09:25:03.955Z,101726.16
2023-05-14T09:27:33.380Z,101722.78
2023-05-14T09:30:24.578Z,101719.13
2023-05-14T09:33:03.615Z,101716.22
2023-05-14T09:35:41.952Z,101718.53
2023-05-14T09:38:17.341Z,101708.44
2023-05-14T09:40:47.463Z,101724.81
2023-05-14T09:43:15.643Z,101712.75
2023-05-14T09:45:46.474Z,101710.53
2023-05-14T09:48:14.364Z,101712.81
2023-05-14T09:50:46.220Z,101716.38
2023-05-14T09:53:14.654Z,101722.53
2023-05-14T09:55:42.112Z,101719.09
2023-05-14T09:58:09.606Z,101714.50
2023-05-14T10:00:38.051Z,101706.44
2023-05-14T10:03:08.265Z,101711.50
2023-05-14T10:05:36.858Z,101706.31
2023-05-14T10:08:10.207Z,101714.72
2023-05-14T10:10:38.456Z,101714.94
2023-05-14T10:13:13.465Z,101702.66
2023-05-14T10:15:49.527Z,101705.81
2023-05-14T10:18:21.739Z,101706.56
2023-05-14T10:21:06.373Z,101706.81
2023-05-14T10:23:38.207Z,101698.63
2023-05-14T10:26:06.671Z,101697.78
2023-05-14T10:28:34.942Z,101701.09
2023-05-14T10:31:02.685Z,101697.94
2023-05-14T10:33:30.231Z,101697.84
2023-05-14T10:36:07.709Z,101696.69
2023-05-14T10:38:37.280Z,101695.69
2023-05-14T10:41:12.274Z,101687.03
2023-05-14T10:43:42.264Z,101686.69
2023-05-14T10:46:11.570Z,101689.72
2023-05-14T10:48:42.712Z,101686.16
2023-05-14T10:51:11.567Z,101680.47
2023-05-14T10:53:43.174Z,101685.09
2023-05-14T10:56:14.785Z,101677.81
2023-05-14T10:58:46.508Z,101674.44
2023-05-14T11:01:15.830Z,101677.22
2023-05-14T11:03:45.440Z,101674.00
2023-05-14T11:06:15.222Z,101684.41
2023-05-14T11:08:43.024Z,101679.13
2023-05-14T11:11:11.046Z,101671.59
2023-05-14T11:13:38.711Z,101669.25
2023-05-14T11:18:38.881Z,101669.34
2023-05-14T11:21:06.663Z,101657.66
2023-05-14T11:23:34.088Z,101667.63
2023-05-14T11:26:01.748Z,101669.47
2023-05-14T11:28:29.941Z,101667.47
2023-05-14T11:30:57.589Z,101669.81
2023-05-14T11:33:27.958Z,101663.22
2023-05-14T11:35:55.465Z,101652.88
2023-05-14T11:38:22.997Z,101659.09
2023-05-14T11:40:55.361Z,101650.63
2023-05-14T11:43:28.514Z,101657.31
2023-05-14T11:45:56.694Z,101649.75
2023-05-14T11:48:24.492Z,101657.81
2023-05-14T11:50:53.206Z,101650.69
2023-05-14T11:53:25.566Z,101645.59
2023-05-14T11:55:57.989Z,101653.41
2023-05-14T11:58:25.927Z,101648.72
2023-05-14T12:00:55.678Z,101654.78
2023-05-14T12:03:26.360Z,101652.84
2023-05-14T12:06:02.338Z,101647.81
2023-05-14T12:08:31.560Z,101649.28
2023-05-14T12:11:00.704Z,101647.44
2023-05-14T12:13:30.100Z,101646.03
2023-05-14T12:16:02.535Z,101644.69
2023-05-14T12:18:33.993Z,101643.44
2023-05-14T12:21:08.042Z,101641.44
2023-05-14T12:23:35.940Z,101649.31
2023-05-14T12:26:06.537Z,101646.53
2023-05-14T12:28:37.948Z,101638.72
2023-05-14T12:31:06.542Z,101646.22
2023-05-14T12:33:34.085Z,101643.88
2023-05-14T12:36:13.971Z,101628.16
2023-05-14T12:38:50.209Z,101630.97
2023-05-14T12:41:18.477Z,101624.75
2023-05-14T12:43:48.882Z,101628.91
2023-05-14T12:46:17.277Z,101626.69
2023-05-14T12:48:44.975Z,101625.13
2023-05-14T12:51:12.763Z,101622.59
2023-05-14T12:53:40.702Z,101621.84
2023-05-14T12:56:08.228Z,101619.09
2023-05-14T12:58:35.875Z,101616.94
2023-05-14T13:01:03.659Z,101612.81
2023-05-14T13:03:31.396Z,101611.47
2023-05-14T13:05:59.476Z,101612.66
2023-05-14T13:08:27.042Z,101609.03
2023-05-14T13:10:55.154Z,101615.78
2023-05-14T13:13:23.416Z,101605.56
2023-05-14T13:15:51.186Z,101605.34
2023-05-14T13:18:18.689Z,101610.38
2023-05-14T13:20:49.811Z,101593.88
2023-05-14T13:23:18.161Z,101591.69
2023-05-14T13:25:47.952Z,101592.41
2023-05-14T13:28:16.846Z,101595.13
2023-05-14T13:31:04.966Z,101582.72
2023-05-14T13:33:33.828Z,101591.50
2023-05-14T13:36:01.351Z,101586.84
2023-05-14T13:38:29.311Z,101580.19
2023-05-14T13:41:02.678Z,101584.75
2023-05-14T13:43:34.804Z,101577.78
2023-05-14T13:46:04.292Z,101573.53
2023-05-14T13:48:31.863Z,101578.88
2023-05-14T13:50:59.560Z,101575.31
2023-05-14T13:53:27.071Z,101574.88
2023-05-14T13:55:58.597Z,101579.63
2023-05-14T13:58:26.143Z,101573.69
2023-05-14T14:05:48.660Z,101571.97
2023-05-14T14:08:23.530Z,101573.81
2023-05-14T14:10:53.117Z,101571.16
2023-05-14T14:13:22.749Z,101572.19
2023-05-14T14:15:51.313Z,101571.44
2023-05-14T14:18:18.890Z,101570.66
2023-05-14T14:20:46.459Z,101564.47
2023-05-14T14:23:13.881Z,101569.81
2023-05-14T14:25:41.539Z,101570.56
2023-05-14T14:28:09.058Z,101561.81
2023-05-14T14:30:36.666Z,101565.50
2023-05-14T14:33:04.630Z,101554.34
2023-05-14T14:35:33.422Z,101568.78
2023-05-14T14:38:00.881Z,101559.16
2023-05-14T14:40:28.367Z,101553.94
2023-05-14T14:42:55.748Z,101556.47
2023-05-14T14:45:23.653Z,101552.91
2023-05-14T14:47:51.369Z,101553.66
2023-05-14T14:50:18.865Z,101547.66
2023-05-14T14:52:48.120Z,101552.22
2023-05-14T14:55:15.743Z,101551.31
2023-05-14T14:57:43.343Z,101548.78
2023-05-14T15:00:11.604Z,101551.38
2023-05-14T15:02:42.103Z,101548.81
2023-05-14T15:05:09.975Z,101546.38
2023-05-14T15:07:37.345Z,101549.00
2023-05-14T15:10:06.959Z,101547.34
2023-05-14T15:12:34.510Z,101551.38
2023-05-14T15:15:01.928Z,101551.81
2023-05-14T15:17:29.393Z,101548.34
2023-05-14T15:19:56.859Z,101546.66
2023-05-14T15:22:24.293Z,101546.69
2023-05-14T15:24:52.325Z,101543.22
2023-05-14T15:27:19.803Z,101537.94
2023-05-14T15:29:47.425Z,101537.88
2023-05-14T15:32:14.873Z,101538.03
2023-05-14T15:34:42.435Z,101537.19
2023-05-14T15:37:09.810Z,101536.28
2023-05-14T15:39:37.310Z,101530.03
2023-05-14T15:42:05.037Z,101531.50
2023-05-14T15:44:32.645Z,101527.03
2023-05-14T15:47:00.062Z,101527.03
2023-05-14T15:49:27.513Z,101521.00
2023-05-14T15:51:55.264Z,101530.06
2023-05-14T15:54:22.765Z,101523.94
2023-05-14T15:56:50.952Z,101525.66
2023-05-14T15:59:19.600Z,101522.78
2023-05-14T16:01:47.284Z,101517.28
2023-05-14T16:04:15.095Z,101521.63
2023-05-14T16:06:44.922Z,101513.53
2023-05-14T16:09:12.416Z,101521.53
2023-05-14T16:11:39.867Z,101518.03
2023-05-14T16:14:07.565Z,101512.88
2023-05-14T16:16:35.295Z,101504.72
2023-05-14T16:19:02.829Z,101511.81
2023-05-14T16:21:30.506Z,101511.97
2023-05-14T16:23:58.108Z,101507.78
2023-05-14T16:26:26.509Z,101515.03
2023-05-14T16:28:53.956Z,101513.31
2023-05-14T16:31:21.509Z,101510.03
2023-05-14T16:33:48.949Z,101510.22
2023-05-14T16:36:16.829Z,101511.22
2023-05-14T16:39:05.145Z,101507.00
2023-05-14T16:41:31.844Z,101512.59
2023-05-14T16:43:59.412Z,101514.47
2023-05-14T16:46:28.683Z,101508.38
2023-05-14T16:48:56.338Z,101511.97
2023-05-14T16:51:23.826Z,101507.59
2023-05-14T16:53:52.055Z,101508.66
2023-05-14T16:56:20.028Z,101506.13
2023-05-14T16:58:47.450Z,101506.38
2023-05-14T17:01:15.230Z,101502.94
2023-05-14T17:03:43.593Z,101502.97
2023-05-14T17:06:11.444Z,101505.69
2023-05-14T17:08:39.007Z,101498.81
2023-05-14T17:11:06.623Z,101499.75
2023-05-14T17:13:34.211Z,101494.47
2023-05-14T17:16:02.110Z,101497.38
2023-05-14T17:18:29.882Z,101494.81
2023-05-14T17:20:57.461Z,101504.53
2023-05-14T17:23:24.946Z,101503.59
2023-05-14T17:25:52.566Z,101504.47
2023-05-14T17:28:20.720Z,101508.84
2023-05-14T17:30:48.270Z,101504.41
2023-05-14T17:33:15.895Z,101502.56
2023-05-14T17:35:45.861Z,101502.63
2023-05-14T17:38:13.705Z,101503.41
2023-05-14T17:40:41.228Z,101505.31
2023-05-14T17:43:08.702Z,101511.41
2023-05-14T17:45:46.242Z,101512.38
2023-05-14T17:48:20.570Z,101502.84
2023-05-14T17:50:48.163Z,101506.38
2023-05-14T17:53:15.707Z,101512.56
2023-05-14T17:55:45.966Z,101513.38
2023-05-14T17:58:15.540Z,101505.38
2023-05-14T18:00:43.832Z,101509.81
2023-05-14T18:03:11.964Z,101510.75
2023-05-14T18:05:39.644Z,101512.53
2023-05-14T18:08:07.169Z,101510.84
2023-05-14T18:10:34.680Z,101513.56
2023-05-14T18:13:02.215Z,101516.25
2023-05-14T18:15:31.578Z,101509.25
2023-05-14T18:18:01.591Z,101514.66
2023-05-14T18:20:28.987Z,101508.63
2023-05-14T18:22:56.484Z,101514.94
2023-05-14T18:25:24.374Z,101513.25
2023-05-14T18:27:52.457Z,101506.06
2023-05-14T18:30:20.045Z,101512.38
2023-05-14T18:32:47.715Z,101517.75
2023-05-14T18:35:15.303Z,101509.06
2023-05-14T18:37:42.869Z,101518.78
2023-05-14T18:40:11.397Z,101517.94
2023-05-14T18:42:38.844Z,101511.78
2023-05-14T18:45:06.570Z,101518.75
2023-05-14T18:47:34.906Z,101517.94
2023-05-14T18:50:02.510Z,101522.44
2023-05-14T18:52:30.127Z,101517.38
2023-05-14T18:54:57.494Z,101520.81
2023-05-14T18:57:27.430Z,101516.53
2023-05-14T18:59:55.523Z,101515.63
2023-05-14T19:02:23.052Z,101528.88
2023-05-14T19:04:52.282Z,101526.28
2023-05-14T19:07:21.087Z,101521.03
2023-05-14T19:09:49.000Z,101521.16
2023-05-14T19:12:16.521Z,101515.91
2023-05-14T19:14:43.884Z,101519.41
2023-05-14T19:17:11.591Z,101518.50
2023-05-14T19:19:39.526Z,101526.41
2023-05-14T19:22:07.415Z,101523.84
2023-05-14T19:24:34.815Z,101531.78
2023-05-14T19:27:02.370Z,101525.69
2023-05-14T19:29:32.331Z,101522.16
2023-05-14T19:31:59.814Z,101531.00
2023-05-14T19:34:27.375Z,101532.78
2023-05-14T19:36:55.426Z,101533.63
2023-05-14T19:39:22.854Z,101531.03
2023-05-14T19:41:50.475Z,101534.53
2023-05-14T19:44:17.932Z,101538.91
2023-05-14T19:46:45.958Z,101544.19
2023-05-14T19:49:13.668Z,101545.94
2023-05-14T19:51:41.218Z,101543.28
2023-05-14T19:54:08.702Z,101547.66
2023-05-14T19:56:36.661Z,101553.88
2023-05-14T19:59:04.101Z,101555.56
2023-05-14T20:01:32.489Z,101557.31
2023-05-14T20:04:00.226Z,101557.25
2023-05-14T20:06:27.904Z,101558.97
2023-05-14T20:08:55.472Z,101557.22
2023-05-14T20:11:23.001Z,101560.72
2023-05-14T20:13:50.459Z,101565.09
2023-05-14T20:16:18.817Z,101572.13
2023-05-14T20:18:46.395Z,101561.59
2023-05-14T20:21:13.914Z,101573.00
2023-05-14T20:23:41.392Z,101562.50
2023-05-14T20:26:08.984Z,101569.41
2023-05-14T20:28:36.467Z,101572.91
2023-05-14T20:31:04.277Z,101569.34
2023-05-14T20:33:31.814Z,101566.69
2023-05-14T20:35:59.428Z,101562.28
2023-05-14T20:38:29.530Z,101572.66
2023-05-14T20:40:57.639Z,101575.41
2023-05-14T20:43:27.718Z,101580.50
2023-05-14T20:45:57.376Z,101591.81
2023-05-14T20:48:25.138Z,101596.25
2023-05-14T20:50:52.713Z,101596.16
2023-05-14T20:53:20.101Z,101603.16
2023-05-14T20:55:47.610Z,101598.56
2023-05-14T20:58:14.960Z,101604.59
2023-05-14T21:00:43.511Z,101600.34
2023-05-14T21:03:11.076Z,101602.91
2023-05-14T21:05:41.534Z,101601.09
2023-05-14T21:08:09.042Z,101600.72
2023-05-14T21:10:36.759Z,101599.66
2023-05-14T21:13:04.246Z,101596.09
2023-05-14T21:15:32.787Z,101598.84
2023-05-14T21:18:01.649Z,101597.91
2023-05-14T21:20:29.155Z,101603.44
2023-05-14T21:22:56.928Z,101592.59
2023-05-14T21:25:24.700Z,101600.47
2023-05-14T21:27:52.216Z,101592.66
2023-05-14T21:30:19.789Z,101591.78
2023-05-14T21:32:47.222Z,101591.63
2023-05-14T21:35:14.941Z,101588.97
2023-05-14T21:37:42.540Z,101594.13
2023-05-14T21:40:12.608Z,101589.94
2023-05-14T21:42:40.861Z,101581.03
2023-05-14T21:45:08.801Z,101583.75
2023-05-14T21:47:37.282Z,101580.13
2023-05-14T21:50:05.884Z,101586.94
2023-05-14T21:52:33.706Z,101583.47
2023-05-14T21:55:01.170Z,101587.78
2023-05-14T21:57:29.245Z,101583.25
2023-05-14T21:59:58.412Z,101579.72
2023-05-14T22:02:26.525Z,101576.91
2023-05-14T22:04:54.247Z,101571.69
2023-05-14T22:07:21.654Z,101577.94
2023-05-14T22:09:50.169Z,101572.63
2023-05-14T22:12:17.631Z,101570.94
2023-05-14T22:14:46.865Z,101574.56
2023-05-14T22:17:14.288Z,101577.25
2023-05-14T22:19:41.827Z,101568.59
2023-05-14T22:22:09.272Z,101577.06
2023-05-14T22:24:36.781Z,101570.78
2023-05-14T22:27:04.422Z,101576.06
2023-05-14T22:29:32.026Z,101574.41
2023-05-14T22:31:59.637Z,101571.81
2023-05-14T22:34:27.127Z,101572.72
2023-05-14T22:36:54.635Z,101564.78
2023-05-14T22:39:22.074Z,101576.88
2023-05-14T22:41:55.204Z,101576.69
2023-05-14T22:44:23.359Z,101574.44
2023-05-14T22:46:51.070Z,101568.25
2023-05-14T22:49:18.650Z,101578.75
2023-05-14T22:51:46.066Z,101571.75
2023-05-14T22:54:13.634Z,101573.59
2023-05-14T22:56:41.068Z,101570.06
2023-05-14T22:59:08.644Z,101568.31
2023-05-14T23:01:36.246Z,101571.47
2023-05-14T23:04:03.918Z,101566.97
2023-05-14T23:06:32.011Z,101570.50
2023-05-14T23:08:59.463Z,101568.03
2023-05-14T23:11:26.804Z,101564.28
2023-05-14T23:13:54.103Z,101563.38
2023-05-14T23:16:21.547Z,101557.16
2023-05-14T23:18:49.199Z,101559.00
2023-05-14T23:21:16.727Z,101541.75
2023-05-14T23:23:45.548Z,101546.91
2023-05-14T23:26:13.024Z,101551.13
2023-05-14T23:28:40.537Z,101550.09
2023-05-14T23:31:07.987Z,101540.63
2023-05-14T23:33:36.073Z,101543.19
2023-05-14T23:36:03.936Z,101542.31
2023-05-14T23:38:31.815Z,101535.56
2023-05-14T23:40:59.196Z,101539.00
2023-05-14T23:43:26.649Z,101534.66
2023-05-14T23:45:54.036Z,101535.59
2023-05-14T23:48:21.532Z,101532.97
2023-05-14T23:50:48.903Z,101533.13
2023-05-14T23:53:17.881Z,101528.88
2023-05-14T23:55:45.504Z,101527.94
2023-05-14T23:58:13.121Z,101527.78
